sensor_id;sensor_type;location;lat;lon;timestamp;pressure;altitude;pressure_sealevel;temperature;humidity
49801;BME280;35698;50.232;30.540;2023-03-31T00:00:13;99998.33;;;9.49;57.18
49801;BME280;35698;50.232;30.540;2023-03-31T00:01:16;99999.02;;;9.37;57.18
49801;BME280;35698;50.232;30.540;2023-03-31T00:02:28;99994.93;;;9.47;57.38
49801;BME280;35698;50.232;30.540;2023-03-31T00:03:31;99997.23;;;9.38;57.34
49801;BME280;35698;50.232;30.540;2023-03-31T00:04:35;99993.14;;;9.48;57.15
49801;BME280;35698;50.232;30.540;2023-03-31T00:05:48;99990.62;;;9.61;57.01
49801;BME280;35698;50.232;30.540;2023-03-31T00:07:19;99999.63;;;9.72;56.93
49801;BME280;35698;50.232;30.540;2023-03-31T00:08:23;99988.41;;;9.69;56.81
49801;BME280;35698;50.232;30.540;2023-03-31T00:09:53;99996.38;;;9.83;56.47
49801;BME280;35698;50.232;30.540;2023-03-31T00:10:58;99993.59;;;9.70;56.48
49801;BME280;35698;50.232;30.540;2023-03-31T00:12:02;99989.34;;;9.68;56.90
49801;BME280;35698;50.232;30.540;2023-03-31T00:13:24;99987.55;;;9.68;57.07
49801;BME280;35698;50.232;30.540;2023-03-31T00:14:46;99984.73;;;9.71;57.29
49801;BME280;35698;50.232;30.540;2023-03-31T00:16:01;99992.83;;;9.68;57.45
49801;BME280;35698;50.232;30.540;2023-03-31T00:17:05;99997.16;;;9.69;57.39
49801;BME280;35698;50.232;30.540;2023-03-31T00:18:16;99991.27;;;9.80;57.47
49801;BME280;35698;50.232;30.540;2023-03-31T00:19:19;99989.93;;;9.73;57.54
49801;BME280;35698;50.232;30.540;2023-03-31T00:20:30;99990.25;;;9.82;57.69
49801;BME280;35698;50.232;30.540;2023-03-31T00:21:34;99990.95;;;9.70;57.81
49801;BME280;35698;50.232;30.540;2023-03-31T00:22:38;99991.27;;;9.50;58.16
49801;BME280;35698;50.232;30.540;2023-03-31T00:24:04;99984.39;;;9.77;57.66
49801;BME280;35698;50.232;30.540;2023-03-31T00:25:26;99989.08;;;9.72;57.80
49801;BME280;35698;50.232;30.540;2023-03-31T00:26:37;99985.50;;;9.73;57.70
49801;BME280;35698;50.232;30.540;2023-03-31T00:28:01;99989.31;;;9.83;57.85
49801;BME280;35698;50.232;30.540;2023-03-31T00:29:06;99983.13;;;9.69;57.58
49801;BME280;35698;50.232;30.540;2023-03-31T00:30:28;99991.56;;;9.60;57.94
49801;BME280;35698;50.232;30.540;2023-03-31T00:31:39;99993.50;;;9.72;57.85
49801;BME280;35698;50.232;30.540;2023-03-31T00:32:43;99979.29;;;9.74;57.41
49801;BME280;35698;50.232;30.540;2023-03-31T00:33:54;99979.20;;;9.76;57.48
49801;BME280;35698;50.232;30.540;2023-03-31T00:34:57;99978.70;;;9.69;57.69
49801;BME280;35698;50.232;30.540;2023-03-31T00:36:04;99974.55;;;9.95;57.41
49801;BME280;35698;50.232;30.540;2023-03-31T00:37:15;99978.08;;;9.80;57.40
49801;BME280;35698;50.232;30.540;2023-03-31T00:38:18;99973.42;;;9.69;57.66
49801;BME280;35698;50.232;30.540;2023-03-31T00:39:22;99979.34;;;9.89;57.70
49801;BME280;35698;50.232;30.540;2023-03-31T00:40:27;99975.83;;;10.18;57.11
49801;BME280;35698;50.232;30.540;2023-03-31T00:41:39;99977.50;;;10.05;57.32
49801;BME280;35698;50.232;30.540;2023-03-31T00:42:43;99975.45;;;9.80;57.75
49801;BME280;35698;50.232;30.540;2023-03-31T00:44:11;99976.02;;;10.15;57.38
49801;BME280;35698;50.232;30.540;2023-03-31T00:45:27;99975.27;;;9.83;57.72
49801;BME280;35698;50.232;30.540;2023-03-31T00:47:51;99967.62;;;9.78;58.11
49801;BME280;35698;50.232;30.540;2023-03-31T00:50:35;99958.75;;;10.09;57.73
49801;BME280;35698;50.232;30.540;2023-03-31T00:51:39;99964.63;;;9.84;57.57
49801;BME280;35698;50.232;30.540;2023-03-31T00:52:44;99959.83;;;9.61;58.25
49801;BME280;35698;50.232;30.540;2023-03-31T00:53:58;99962.87;;;9.69;58.63
49801;BME280;35698;50.232;30.540;2023-03-31T00:55:11;99963.41;;;9.60;58.62
49801;BME280;35698;50.232;30.540;2023-03-31T00:56:23;99961.18;;;9.68;59.02
49801;BME280;35698;50.232;30.540;2023-03-31T00:57:28;99959.16;;;9.58;58.86
49801;BME280;35698;50.232;30.540;2023-03-31T00:58:41;99950.67;;;9.82;58.20
49801;BME280;35698;50.232;30.540;2023-03-31T00:59:52;99954.47;;;9.63;58.38
49801;BME280;35698;50.232;30.540;2023-03-31T01:01:14;99954.47;;;9.63;58.80
49801;BME280;35698;50.232;30.540;2023-03-31T01:02:26;99951.30;;;9.72;58.88
49801;BME280;35698;50.232;30.540;2023-03-31T01:03:31;99945.71;;;9.62;58.89
49801;BME280;35698;50.232;30.540;2023-03-31T01:04:55;99957.11;;;9.63;58.97
49801;BME280;35698;50.232;30.540;2023-03-31T01:06:10;99945.27;;;9.70;58.95
49801;BME280;35698;50.232;30.540;2023-03-31T01:08:56;99945.97;;;9.58;59.11
49801;BME280;35698;50.232;30.540;2023-03-31T01:10:19;99942.96;;;9.49;59.37
49801;BME280;35698;50.232;30.540;2023-03-31T01:11:30;99943.25;;;9.59;59.34
49801;BME280;35698;50.232;30.540;2023-03-31T01:12:39;99939.66;;;9.46;59.32
49801;BME280;35698;50.232;30.540;2023-03-31T01:14:02;99936.16;;;9.45;59.45
49801;BME280;35698;50.232;30.540;2023-03-31T01:15:23;99932.03;;;9.56;59.04
49801;BME280;35698;50.232;30.540;2023-03-31T01:16:26;99936.16;;;9.45;59.61
49801;BME280;35698;50.232;30.540;2023-03-31T01:17:38;99931.09;;;9.57;59.60
49801;BME280;35698;50.232;30.540;2023-03-31T01:18:43;99931.74;;;9.46;59.38
49801;BME280;35698;50.232;30.540;2023-03-31T01:20:39;99931.48;;;9.50;59.21
49801;BME280;35698;50.232;30.540;2023-03-31T01:28:49;99923.48;;;9.52;59.59
49801;BME280;35698;50.232;30.540;2023-03-31T01:42:50;99911.23;;;9.51;59.85
49801;BME280;35698;50.232;30.540;2023-03-31T01:50:36;99912.95;;;9.66;59.00
49801;BME280;35698;50.232;30.540;2023-03-31T01:53:21;99908.16;;;9.73;58.82
49801;BME280;35698;50.232;30.540;2023-03-31T01:56:06;99898.28;;;9.76;58.46
49801;BME280;35698;50.232;30.540;2023-03-31T01:57:38;99900.00;;;9.92;57.82
49801;BME280;35698;50.232;30.540;2023-03-31T02:00:03;99911.55;;;9.75;57.56
49801;BME280;35698;50.232;30.540;2023-03-31T02:04:32;99897.45;;;9.90;58.00
49801;BME280;35698;50.232;30.540;2023-03-31T02:07:22;99889.66;;;9.59;59.41
49801;BME280;35698;50.232;30.540;2023-03-31T02:08:39;99890.20;;;9.94;59.00
49801;BME280;35698;50.232;30.540;2023-03-31T02:09:49;99881.30;;;9.66;59.16
49801;BME280;35698;50.232;30.540;2023-03-31T02:11:13;99878.84;;;9.63;59.30
49801;BME280;35698;50.232;30.540;2023-03-31T02:12:25;99871.59;;;9.67;59.17
49801;BME280;35698;50.232;30.540;2023-03-31T02:13:31;99871.05;;;9.76;58.68
49801;BME280;35698;50.232;30.540;2023-03-31T02:14:55;99869.14;;;9.64;58.94
49801;BME280;35698;50.232;30.540;2023-03-31T02:16:24;99867.17;;;9.53;59.62
49801;BME280;35698;50.232;30.540;2023-03-31T02:17:37;99870.47;;;9.71;59.88
49801;BME280;35698;50.232;30.540;2023-03-31T02:18:42;99863.37;;;9.57;59.93
49801;BME280;35698;50.232;30.540;2023-03-31T02:20:09;99858.86;;;9.59;59.61
49801;BME280;35698;50.232;30.540;2023-03-31T02:21:21;99857.74;;;9.63;59.78
49801;BME280;35698;50.232;30.540;2023-03-31T02:22:26;99858.50;;;9.51;59.79
49801;BME280;35698;50.232;30.540;2023-03-31T02:23:50;99857.95;;;9.74;59.94
49801;BME280;35698;50.232;30.540;2023-03-31T02:25:09;99856.31;;;9.43;60.25
49801;BME280;35698;50.232;30.540;2023-03-31T02:26:18;99843.83;;;9.75;60.00
49801;BME280;35698;50.232;30.540;2023-03-31T02:27:41;99837.42;;;9.79;59.96
49801;BME280;35698;50.232;30.540;2023-03-31T02:28:53;99834.08;;;10.34;58.63
49801;BME280;35698;50.232;30.540;2023-03-31T02:29:57;99832.64;;;10.00;58.89
49801;BME280;35698;50.232;30.540;2023-03-31T02:31:40;99838.09;;;9.83;59.15
49801;BME280;35698;50.232;30.540;2023-03-31T02:32:50;99837.44;;;9.94;59.12
49801;BME280;35698;50.232;30.540;2023-03-31T02:33:53;99830.93;;;9.85;59.00
49801;BME280;35698;50.232;30.540;2023-03-31T02:35:18;99829.23;;;9.84;59.17
49801;BME280;35698;50.232;30.540;2023-03-31T02:36:38;99831.31;;;9.93;59.11
49801;BME280;35698;50.232;30.540;2023-03-31T02:37:57;99830.74;;;9.88;58.98
49801;BME280;35698;50.232;30.540;2023-03-31T02:39:12;99829.05;;;10.01;59.10
49801;BME280;35698;50.232;30.540;2023-03-31T02:40:19;99822.08;;;9.86;59.33
49801;BME280;35698;50.232;30.540;2023-03-31T02:41:23;99828.95;;;9.89;59.21
49801;BME280;35698;50.232;30.540;2023-03-31T02:42:37;99820.09;;;10.18;58.95
49801;BME280;35698;50.232;30.540;2023-03-31T02:44:07;99817.55;;;10.02;58.88
49801;BME280;35698;50.232;30.540;2023-03-31T02:45:45;99814.16;;;9.86;58.78
49801;BME280;35698;50.232;30.540;2023-03-31T02:46:50;99816.80;;;9.86;59.01
49801;BME280;35698;50.232;30.540;2023-03-31T02:48:16;99819.99;;;9.77;59.48
49801;BME280;35698;50.232;30.540;2023-03-31T02:50:00;99819.89;;;9.50;60.30
49801;BME280;35698;50.232;30.540;2023-03-31T02:59:29;99821.15;;;9.29;60.38
49801;BME280;35698;50.232;30.540;2023-03-31T03:01:00;99823.11;;;9.25;60.42
49801;BME280;35698;50.232;30.540;2023-03-31T03:02:21;99819.77;;;9.37;60.60
49801;BME280;35698;50.232;30.540;2023-03-31T03:03:30;99812.48;;;9.27;60.65
49801;BME280;35698;50.232;30.540;2023-03-31T03:05:08;99820.16;;;9.45;60.65
49801;BME280;35698;50.232;30.540;2023-03-31T03:06:35;99818.06;;;9.36;60.86
49801;BME280;35698;50.232;30.540;2023-03-31T03:07:57;99812.52;;;9.41;60.60
49801;BME280;35698;50.232;30.540;2023-03-31T03:21:10;99812.34;;;9.58;61.74
49801;BME280;35698;50.232;30.540;2023-03-31T03:22:13;99813.77;;;9.49;61.42
49801;BME280;35698;50.232;30.540;2023-03-31T03:23:24;99815.55;;;9.63;61.13
49801;BME280;35698;50.232;30.540;2023-03-31T03:24:27;99816.09;;;9.54;60.79
49801;BME280;35698;50.232;30.540;2023-03-31T03:25:33;99815.91;;;9.57;60.48
49801;BME280;35698;50.232;30.540;2023-03-31T03:26:44;99810.09;;;9.66;60.38
49801;BME280;35698;50.232;30.540;2023-03-31T03:27:48;99812.61;;;9.53;60.39
49801;BME280;35698;50.232;30.540;2023-03-31T03:28:59;99806.60;;;9.66;60.29
49801;BME280;35698;50.232;30.540;2023-03-31T03:30:03;99816.22;;;9.52;60.28
49801;BME280;35698;50.232;30.540;2023-03-31T03:31:19;99807.55;;;9.65;60.39
49801;BME280;35698;50.232;30.540;2023-03-31T03:32:23;99806.52;;;9.53;60.25
49801;BME280;35698;50.232;30.540;2023-03-31T03:33:45;99813.37;;;9.56;60.35
49801;BME280;35698;50.232;30.540;2023-03-31T03:34:56;99808.02;;;9.71;60.44
49801;BME280;35698;50.232;30.540;2023-03-31T03:36:01;99808.58;;;9.62;60.23
49801;BME280;35698;50.232;30.540;2023-03-31T03:37:23;99803.12;;;9.65;59.77
49801;BME280;35698;50.232;30.540;2023-03-31T03:38:38;99808.58;;;9.62;60.21
49801;BME280;35698;50.232;30.540;2023-03-31T03:39:43;99807.83;;;9.46;60.49
49801;BME280;35698;50.232;30.540;2023-03-31T03:41:05;99809.43;;;9.48;60.75
49801;BME280;35698;50.232;30.540;2023-03-31T03:42:18;99809.61;;;9.60;60.41
49801;BME280;35698;50.232;30.540;2023-03-31T03:43:23;99809.70;;;9.44;60.16
49801;BME280;35698;50.232;30.540;2023-03-31T03:44:44;99812.70;;;9.38;60.26
49801;BME280;35698;50.232;30.540;2023-03-31T03:46:06;99806.67;;;9.36;60.63
49801;BME280;35698;50.232;30.540;2023-03-31T03:47:20;99811.40;;;9.45;61.11
49801;BME280;35698;50.232;30.540;2023-03-31T03:48:25;99812.70;;;9.38;61.34
49801;BME280;35698;50.232;30.540;2023-03-31T03:49:47;99811.40;;;9.45;61.47
49801;BME280;35698;50.232;30.540;2023-03-31T03:51:01;99801.70;;;9.60;61.45
49801;BME280;35698;50.232;30.540;2023-03-31T03:52:05;99801.97;;;9.55;61.18
49801;BME280;35698;50.232;30.540;2023-03-31T03:53:27;99795.66;;;9.58;60.40
49801;BME280;35698;50.232;30.540;2023-03-31T03:54:51;99797.47;;;9.71;60.06
49801;BME280;35698;50.232;30.540;2023-03-31T03:56:07;99792.48;;;9.67;60.48
49801;BME280;35698;50.232;30.540;2023-03-31T03:57:12;99790.39;;;9.58;60.64
49801;BME280;35698;50.232;30.540;2023-03-31T03:58:34;99792.94;;;9.59;60.59
49801;BME280;35698;50.232;30.540;2023-03-31T03:59:55;99792.94;;;9.59;60.67
49801;BME280;35698;50.232;30.540;2023-03-31T04:01:08;99797.56;;;9.70;60.54
49801;BME280;35698;50.232;30.540;2023-03-31T04:02:12;99798.97;;;9.61;60.40
49801;BME280;35698;50.232;30.540;2023-03-31T04:03:23;99800.86;;;9.73;60.37
49801;BME280;35698;50.232;30.540;2023-03-31T04:04:26;99796.42;;;9.60;59.96
49801;BME280;35698;50.232;30.540;2023-03-31T04:05:38;99792.77;;;9.76;59.50
49801;BME280;35698;50.232;30.540;2023-03-31T04:06:42;99797.84;;;9.65;59.38
49801;BME280;35698;50.232;30.540;2023-03-31T04:07:53;99794.38;;;9.79;59.08
49801;BME280;35698;50.232;30.540;2023-03-31T04:08:56;99791.53;;;9.68;59.48
49801;BME280;35698;50.232;30.540;2023-03-31T04:10:08;99788.25;;;9.78;59.59
49801;BME280;35698;50.232;30.540;2023-03-31T04:11:17;99789.66;;;9.70;59.79
49801;BME280;35698;50.232;30.540;2023-03-31T04:12:28;99790.51;;;9.84;59.84
49801;BME280;35698;50.232;30.540;2023-03-31T04:13:31;99785.80;;;9.75;59.82
49801;BME280;35698;50.232;30.540;2023-03-31T04:14:42;99784.86;;;9.91;59.75
49801;BME280;35698;50.232;30.540;2023-03-31T04:15:46;99776.00;;;9.77;59.64
49801;BME280;35698;50.232;30.540;2023-03-31T04:16:49;99778.73;;;9.76;59.70
49801;BME280;35698;50.232;30.540;2023-03-31T04:18:00;99774.68;;;9.84;59.66
49801;BME280;35698;50.232;30.540;2023-03-31T04:19:04;99783.25;;;9.74;59.36
49801;BME280;35698;50.232;30.540;2023-03-31T04:20:09;99774.48;;;9.73;59.67
49801;BME280;35698;50.232;30.540;2023-03-31T04:21:31;99777.32;;;9.84;59.58
49801;BME280;35698;50.232;30.540;2023-03-31T04:22:35;99773.55;;;9.74;59.52
49801;BME280;35698;50.232;30.540;2023-03-31T04:23:41;99771.09;;;9.71;59.79
49801;BME280;35698;50.232;30.540;2023-03-31T04:25:05;99763.94;;;9.88;60.30
49801;BME280;35698;50.232;30.540;2023-03-31T04:26:35;99776.00;;;9.92;60.14
49801;BME280;35698;50.232;30.540;2023-03-31T04:29:13;99768.84;;;9.94;58.83
49801;BME280;35698;50.232;30.540;2023-03-31T04:31:47;99763.94;;;9.88;58.92
49801;BME280;35698;50.232;30.540;2023-03-31T04:34:05;99755.18;;;9.87;59.37
49801;BME280;35698;50.232;30.540;2023-03-31T04:36:30;99759.13;;;9.80;58.77
49801;BME280;35698;50.232;30.540;2023-03-31T04:37:35;99766.77;;;9.84;59.04
49801;BME280;35698;50.232;30.540;2023-03-31T04:38:48;99759.00;;;10.38;57.93
49801;BME280;35698;50.232;30.540;2023-03-31T04:39:52;99761.84;;;10.35;57.95
49801;BME280;35698;50.232;30.540;2023-03-31T04:40:55;99754.67;;;10.37;57.84
49801;BME280;35698;50.232;30.540;2023-03-31T04:42:07;99758.34;;;10.62;57.65
49801;BME280;35698;50.232;30.540;2023-03-31T04:43:11;99755.74;;;10.47;57.71
49801;BME280;35698;50.232;30.540;2023-03-31T04:44:26;99757.20;;;10.66;57.06
49801;BME280;35698;50.232;30.540;2023-03-31T04:45:30;99746.88;;;10.48;57.17
49801;BME280;35698;50.232;30.540;2023-03-31T04:46:34;99752.26;;;10.47;57.29
49801;BME280;35698;50.232;30.540;2023-03-31T04:47:45;99750.22;;;10.65;57.17
49801;BME280;35698;50.232;30.540;2023-03-31T04:48:48;99742.52;;;10.35;57.18
49801;BME280;35698;50.232;30.540;2023-03-31T04:49:52;99742.90;;;10.14;57.71
49801;BME280;35698;50.232;30.540;2023-03-31T04:50:58;99746.58;;;10.12;57.92
49801;BME280;35698;50.232;30.540;2023-03-31T04:52:09;99737.82;;;10.26;58.08
49801;BME280;35698;50.232;30.540;2023-03-31T04:53:13;99743.39;;;10.21;58.04
49801;BME280;35698;50.232;30.540;2023-03-31T04:54:24;99737.13;;;10.36;58.23
49801;BME280;35698;50.232;30.540;2023-03-31T04:55:27;99734.42;;;10.50;58.01
49801;BME280;35698;50.232;30.540;2023-03-31T04:56:33;99736.70;;;10.42;58.21
49801;BME280;35698;50.232;30.540;2023-03-31T04:57:37;99739.90;;;10.47;58.56
49801;BME280;35698;50.232;30.540;2023-03-31T04:58:41;99732.63;;;10.51;58.07
49801;BME280;35698;50.232;30.540;2023-03-31T04:59:52;99731.83;;;10.63;57.79
49801;BME280;35698;50.232;30.540;2023-03-31T05:00:55;99734.77;;;10.59;57.55
49801;BME280;35698;50.232;30.540;2023-03-31T05:02:07;99726.88;;;11.11;56.46
49801;BME280;35698;50.232;30.540;2023-03-31T05:03:11;99723.14;;;10.88;56.70
49801;BME280;35698;50.232;30.540;2023-03-31T05:04:14;99729.63;;;10.70;57.27
49801;BME280;35698;50.232;30.540;2023-03-31T05:05:25;99723.47;;;10.96;56.92
49801;BME280;35698;50.232;30.540;2023-03-31T05:06:28;99729.06;;;10.92;57.04
49801;BME280;35698;50.232;30.540;2023-03-31T05:07:40;99735.50;;;10.88;56.80
49801;BME280;35698;50.232;30.540;2023-03-31T05:08:43;99724.15;;;10.73;56.79
49801;BME280;35698;50.232;30.540;2023-03-31T05:09:57;99730.22;;;10.88;56.84
49801;BME280;35698;50.232;30.540;2023-03-31T05:11:03;99731.97;;;10.74;56.43
49801;BME280;35698;50.232;30.540;2023-03-31T05:12:14;99725.78;;;10.88;56.55
49801;BME280;35698;50.232;30.540;2023-03-31T05:13:17;99722.16;;;10.76;56.38
49801;BME280;35698;50.232;30.540;2023-03-31T05:14:39;99715.17;;;10.75;56.62
49801;BME280;35698;50.232;30.540;2023-03-31T05:15:50;99724.19;;;10.86;56.83
49801;BME280;35698;50.232;30.540;2023-03-31T05:16:54;99722.80;;;10.80;56.91
49801;BME280;35698;50.232;30.540;2023-03-31T05:18:17;99720.25;;;10.78;56.62
49801;BME280;35698;50.232;30.540;2023-03-31T05:19:31;99726.22;;;10.95;56.11
49801;BME280;35698;50.232;30.540;2023-03-31T05:20:34;99727.33;;;10.78;55.77
49801;BME280;35698;50.232;30.540;2023-03-31T05:21:56;99716.77;;;10.78;55.74
49801;BME280;35698;50.232;30.540;2023-03-31T05:23:07;99722.19;;;10.89;55.82
49801;BME280;35698;50.232;30.540;2023-03-31T05:24:10;99718.46;;;10.79;55.57
49801;BME280;35698;50.232;30.540;2023-03-31T05:25:32;99717.52;;;10.80;55.26
49801;BME280;35698;50.232;30.540;2023-03-31T05:26:43;99711.08;;;10.84;55.63
49801;BME280;35698;50.232;30.540;2023-03-31T05:27:54;99711.08;;;10.84;55.65
49801;BME280;35698;50.232;30.540;2023-03-31T05:28:57;99718.72;;;10.62;56.10
49801;BME280;35698;50.232;30.540;2023-03-31T05:30:19;99709.30;;;10.58;56.36
49801;BME280;35698;50.232;30.540;2023-03-31T05:31:40;99703.48;;;10.92;55.89
49801;BME280;35698;50.232;30.540;2023-03-31T05:32:52;99709.44;;;11.08;55.25
49801;BME280;35698;50.232;30.540;2023-03-31T05:33:56;99699.38;;;11.01;54.98
49801;BME280;35698;50.232;30.540;2023-03-31T05:35:18;99703.81;;;11.00;55.27
49801;BME280;35698;50.232;30.540;2023-03-31T05:36:39;99702.97;;;11.00;54.99
49801;BME280;35698;50.232;30.540;2023-03-31T05:37:51;99696.22;;;11.08;54.66
49801;BME280;35698;50.232;30.540;2023-03-31T05:38:55;99695.04;;;11.00;54.76
49801;BME280;35698;50.232;30.540;2023-03-31T05:40:17;99691.45;;;11.01;54.76
49801;BME280;35698;50.232;30.540;2023-03-31T05:41:39;99688.19;;;11.10;55.00
49801;BME280;35698;50.232;30.540;2023-03-31T05:42:51;99684.36;;;11.27;54.56
49801;BME280;35698;50.232;30.540;2023-03-31T05:43:54;99684.48;;;11.12;54.39
49801;BME280;35698;50.232;30.540;2023-03-31T05:45:07;99679.41;;;11.22;54.22
49801;BME280;35698;50.232;30.540;2023-03-31T05:46:22;99686.39;;;11.23;54.29
49801;BME280;35698;50.232;30.540;2023-03-31T05:47:33;99680.77;;;11.28;54.18
49801;BME280;35698;50.232;30.540;2023-03-31T05:48:36;99683.86;;;11.22;54.57
49801;BME280;35698;50.232;30.540;2023-03-31T05:49:48;99679.81;;;11.29;54.30
49801;BME280;35698;50.232;30.540;2023-03-31T05:50:56;99672.93;;;10.88;54.39
49801;BME280;35698;50.232;30.540;2023-03-31T05:52:08;99667.15;;;11.21;53.91
49801;BME280;35698;50.232;30.540;2023-03-31T05:53:12;99675.80;;;10.98;53.81
49801;BME280;35698;50.232;30.540;2023-03-31T05:54:23;99663.34;;;11.25;54.19
49801;BME280;35698;50.232;30.540;2023-03-31T05:55:27;99670.18;;;11.28;54.24
49801;BME280;35698;50.232;30.540;2023-03-31T05:56:38;99668.28;;;11.30;54.81
49801;BME280;35698;50.232;30.540;2023-03-31T05:57:50;99670.28;;;11.39;54.93
49801;BME280;35698;50.232;30.540;2023-03-31T05:59:01;99662.77;;;11.45;54.64
49801;BME280;35698;50.232;30.540;2023-03-31T06:00:06;99663.61;;;11.59;53.89
49801;BME280;35698;50.232;30.540;2023-03-31T06:01:18;99659.25;;;11.83;53.36
49801;BME280;35698;50.232;30.540;2023-03-31T06:02:21;99658.73;;;11.65;53.68
49801;BME280;35698;50.232;30.540;2023-03-31T06:03:25;99667.71;;;11.88;53.38
49801;BME280;35698;50.232;30.540;2023-03-31T06:04:37;99665.47;;;12.19;52.92
49801;BME280;35698;50.232;30.540;2023-03-31T06:05:48;99662.82;;;12.19;52.58
49801;BME280;35698;50.232;30.540;2023-03-31T06:06:59;99657.19;;;12.23;52.82
49801;BME280;35698;50.232;30.540;2023-03-31T06:08:21;99661.35;;;12.14;52.49
49801;BME280;35698;50.232;30.540;2023-03-31T06:09:32;99667.95;;;12.33;52.33
49801;BME280;35698;50.232;30.540;2023-03-31T06:10:53;99659.55;;;12.15;52.20
49801;BME280;35698;50.232;30.540;2023-03-31T06:11:57;99658.56;;;12.05;52.64
49801;BME280;35698;50.232;30.540;2023-03-31T06:13:00;99664.70;;;12.05;52.78
49801;BME280;35698;50.232;30.540;2023-03-31T06:14:04;99667.34;;;12.29;52.30
49801;BME280;35698;50.232;30.540;2023-03-31T06:15:15;99657.14;;;12.36;52.52
49801;BME280;35698;50.232;30.540;2023-03-31T06:16:37;99665.64;;;12.28;52.84
49801;BME280;35698;50.232;30.540;2023-03-31T06:17:49;99665.13;;;12.47;52.58
49801;BME280;35698;50.232;30.540;2023-03-31T06:19:10;99656.80;;;12.40;52.79
49801;BME280;35698;50.232;30.540;2023-03-31T06:20:24;99660.06;;;12.44;53.26
49801;BME280;35698;50.232;30.540;2023-03-31T06:21:46;99656.80;;;12.40;52.76
49801;BME280;35698;50.232;30.540;2023-03-31T06:23:07;99658.27;;;12.44;52.83
49801;BME280;35698;50.232;30.540;2023-03-31T06:24:19;99653.08;;;12.43;52.56
49801;BME280;35698;50.232;30.540;2023-03-31T06:25:48;99654.59;;;12.34;52.59
49801;BME280;35698;50.232;30.540;2023-03-31T06:27:10;99656.29;;;12.35;52.68
49801;BME280;35698;50.232;30.540;2023-03-31T06:28:22;99653.13;;;12.54;52.73
49801;BME280;35698;50.232;30.540;2023-03-31T06:29:44;99652.33;;;12.65;52.33
49801;BME280;35698;50.232;30.540;2023-03-31T06:31:08;99649.02;;;12.85;51.64
49801;BME280;35698;50.232;30.540;2023-03-31T06:32:20;99645.88;;;12.80;52.09
49801;BME280;35698;50.232;30.540;2023-03-31T06:33:42;99648.09;;;12.97;51.98
49801;BME280;35698;50.232;30.540;2023-03-31T06:35:03;99643.37;;;12.90;51.82
49801;BME280;35698;50.232;30.540;2023-03-31T06:36:16;99650.26;;;13.14;51.13
49801;BME280;35698;50.232;30.540;2023-03-31T06:37:24;99652.18;;;13.12;50.81
49801;BME280;35698;50.232;30.540;2023-03-31T06:38:45;99653.43;;;13.20;50.25
49801;BME280;35698;50.232;30.540;2023-03-31T06:39:57;99646.58;;;13.39;50.32
49801;BME280;35698;50.232;30.540;2023-03-31T06:41:01;99642.48;;;13.35;50.01
49801;BME280;35698;50.232;30.540;2023-03-31T06:42:22;99646.47;;;13.63;49.70
49801;BME280;35698;50.232;30.540;2023-03-31T06:43:34;99643.94;;;13.62;49.75
49801;BME280;35698;50.232;30.540;2023-03-31T06:44:37;99644.59;;;13.97;49.14
49801;BME280;35698;50.232;30.540;2023-03-31T06:45:59;99631.80;;;13.91;48.68
49801;BME280;35698;50.232;30.540;2023-03-31T06:47:13;99637.24;;;14.44;46.45
49801;BME280;35698;50.232;30.540;2023-03-31T06:48:17;99627.92;;;14.50;45.02
49801;BME280;35698;50.232;30.540;2023-03-31T06:49:38;99626.64;;;14.65;44.67
49801;BME280;35698;50.232;30.540;2023-03-31T06:50:53;99626.17;;;14.81;43.82
49801;BME280;35698;50.232;30.540;2023-03-31T06:51:57;99622.53;;;14.82;43.91
49801;BME280;35698;50.232;30.540;2023-03-31T06:53:08;99626.17;;;15.01;41.82
49801;BME280;35698;50.232;30.540;2023-03-31T06:54:11;99623.73;;;14.68;40.61
49801;BME280;35698;50.232;30.540;2023-03-31T06:55:23;99621.95;;;14.78;41.39
49801;BME280;35698;50.232;30.540;2023-03-31T06:56:26;99623.53;;;14.60;40.74
49801;BME280;35698;50.232;30.540;2023-03-31T06:57:38;99623.38;;;14.82;40.43
49801;BME280;35698;50.232;30.540;2023-03-31T06:58:42;99625.91;;;14.84;40.73
49801;BME280;35698;50.232;30.540;2023-03-31T06:59:53;99620.59;;;15.04;40.81
49801;BME280;35698;50.232;30.540;2023-03-31T07:00:56;99618.98;;;14.51;39.13
49801;BME280;35698;50.232;30.540;2023-03-31T07:02:09;99624.11;;;14.63;39.73
49801;BME280;35698;50.232;30.540;2023-03-31T07:03:13;99619.05;;;14.60;40.41
49801;BME280;35698;50.232;30.540;2023-03-31T07:04:16;99621.23;;;14.76;40.97
49801;BME280;35698;50.232;30.540;2023-03-31T07:05:28;99619.63;;;14.85;40.19
49801;BME280;35698;50.232;30.540;2023-03-31T07:06:31;99615.84;;;15.08;39.77
49801;BME280;35698;50.232;30.540;2023-03-31T07:07:43;99614.84;;;15.30;39.83
49801;BME280;35698;50.232;30.540;2023-03-31T07:08:48;99608.81;;;15.28;40.10
49801;BME280;35698;50.232;30.540;2023-03-31T07:09:59;99608.50;;;15.52;39.33
49801;BME280;35698;50.232;30.540;2023-03-31T07:11:03;99603.76;;;15.25;39.96
49801;BME280;35698;50.232;30.540;2023-03-31T07:12:14;99603.98;;;15.43;39.90
49801;BME280;35698;50.232;30.540;2023-03-31T07:13:17;99606.11;;;15.49;39.55
49801;BME280;35698;50.232;30.540;2023-03-31T07:14:32;99597.39;;;15.87;39.11
49801;BME280;35698;50.232;30.540;2023-03-31T07:15:48;99604.11;;;15.81;39.84
49801;BME280;35698;50.232;30.540;2023-03-31T07:16:52;99594.98;;;15.74;39.24
49801;BME280;35698;50.232;30.540;2023-03-31T07:17:56;99589.95;;;15.81;38.75
49801;BME280;35698;50.232;30.540;2023-03-31T07:19:03;99594.46;;;15.90;38.97
49801;BME280;35698;50.232;30.540;2023-03-31T07:20:18;99587.78;;;16.44;38.47
49801;BME280;35698;50.232;30.540;2023-03-31T07:21:21;99587.78;;;16.44;37.68
49801;BME280;35698;50.232;30.540;2023-03-31T07:22:33;99587.91;;;16.71;38.10
49801;BME280;35698;50.232;30.540;2023-03-31T07:23:39;99588.03;;;16.50;35.62
49801;BME280;35698;50.232;30.540;2023-03-31T07:24:51;99596.19;;;16.68;36.51